sensor_id;sensor_type;location;lat;lon;timestamp;P1;durP1;ratioP1;P2;durP2;ratioP2
14191;SDS011;7177;48.572;7.838;2023-02-21T00:01:51;18.73;;;13.93;;
14191;SDS011;7177;48.572;7.838;2023-02-21T00:04:35;21.45;;;14.60;;
14191;SDS011;7177;48.572;7.838;2023-02-21T00:07:20;19.73;;;13.57;;
14191;SDS011;7177;48.572;7.838;2023-02-21T00:10:05;18.50;;;13.73;;
14191;SDS011;7177;48.572;7.838;2023-02-21T00:12:50;16.85;;;12.63;;
14191;SDS011;7177;48.572;7.838;2023-02-21T00:15:34;18.98;;;13.52;;
14191;SDS011;7177;48.572;7.838;2023-02-21T00:18:18;18.15;;;12.73;;
14191;SDS011;7177;48.572;7.838;2023-02-21T00:21:03;19.13;;;12.93;;
14191;SDS011;7177;48.572;7.838;2023-02-21T00:23:47;18.90;;;12.95;;
14191;SDS011;7177;48.572;7.838;2023-02-21T00:26:31;17.77;;;11.68;;
14191;SDS011;7177;48.572;7.838;2023-02-21T00:29:15;15.40;;;11.30;;
14191;SDS011;7177;48.572;7.838;2023-02-21T00:31:59;14.50;;;10.02;;
14191;SDS011;7177;48.572;7.838;2023-02-21T00:34:43;11.73;;;8.45;;
14191;SDS011;7177;48.572;7.838;2023-02-21T00:37:28;10.65;;;8.40;;
14191;SDS011;7177;48.572;7.838;2023-02-21T00:40:12;10.90;;;9.13;;
14191;SDS011;7177;48.572;7.838;2023-02-21T00:42:57;11.88;;;8.23;;
14191;SDS011;7177;48.572;7.838;2023-02-21T00:45:41;10.10;;;8.10;;
14191;SDS011;7177;48.572;7.838;2023-02-21T00:48:25;9.98;;;7.60;;
14191;SDS011;7177;48.572;7.838;2023-02-21T00:51:09;11.50;;;8.25;;
14191;SDS011;7177;48.572;7.838;2023-02-21T00:53:53;10.75;;;8.05;;
14191;SDS011;7177;48.572;7.838;2023-02-21T00:56:37;11.25;;;8.77;;
14191;SDS011;7177;48.572;7.838;2023-02-21T00:59:21;10.93;;;7.70;;
14191;SDS011;7177;48.572;7.838;2023-02-21T01:02:05;12.80;;;8.57;;
14191;SDS011;7177;48.572;7.838;2023-02-21T01:04:50;11.77;;;8.40;;
14191;SDS011;7177;48.572;7.838;2023-02-21T01:07:34;11.60;;;8.00;;
14191;SDS011;7177;48.572;7.838;2023-02-21T01:10:18;13.60;;;9.05;;
14191;SDS011;7177;48.572;7.838;2023-02-21T01:13:02;13.40;;;9.85;;
14191;SDS011;7177;48.572;7.838;2023-02-21T01:15:47;12.60;;;9.13;;
14191;SDS011;7177;48.572;7.838;2023-02-21T01:18:30;10.30;;;8.27;;
14191;SDS011;7177;48.572;7.838;2023-02-21T01:21:15;13.30;;;8.63;;
14191;SDS011;7177;48.572;7.838;2023-02-21T01:24:00;14.35;;;8.95;;
14191;SDS011;7177;48.572;7.838;2023-02-21T01:26:45;12.65;;;10.32;;
14191;SDS011;7177;48.572;7.838;2023-02-21T01:29:29;13.07;;;9.60;;
14191;SDS011;7177;48.572;7.838;2023-02-21T01:32:13;10.52;;;8.63;;
14191;SDS011;7177;48.572;7.838;2023-02-21T01:34:57;13.15;;;9.55;;
14191;SDS011;7177;48.572;7.838;2023-02-21T01:37:41;13.33;;;8.90;;
14191;SDS011;7177;48.572;7.838;2023-02-21T01:40:26;12.10;;;8.93;;
14191;SDS011;7177;48.572;7.838;2023-02-21T01:43:18;11.13;;;8.52;;
14191;SDS011;7177;48.572;7.838;2023-02-21T01:46:04;12.27;;;8.30;;
14191;SDS011;7177;48.572;7.838;2023-02-21T01:48:49;12.60;;;9.02;;
14191;SDS011;7177;48.572;7.838;2023-02-21T01:51:36;12.07;;;8.40;;
14191;SDS011;7177;48.572;7.838;2023-02-21T01:54:23;12.50;;;8.82;;
14191;SDS011;7177;48.572;7.838;2023-02-21T01:57:11;14.65;;;9.68;;
14191;SDS011;7177;48.572;7.838;2023-02-21T01:59:56;11.35;;;7.80;;
14191;SDS011;7177;48.572;7.838;2023-02-21T02:02:48;12.02;;;9.20;;
14191;SDS011;7177;48.572;7.838;2023-02-21T02:05:40;10.63;;;8.60;;
14191;SDS011;7177;48.572;7.838;2023-02-21T02:08:27;14.23;;;9.75;;
14191;SDS011;7177;48.572;7.838;2023-02-21T02:11:22;14.27;;;8.75;;
14191;SDS011;7177;48.572;7.838;2023-02-21T02:17:07;12.23;;;8.50;;
14191;SDS011;7177;48.572;7.838;2023-02-21T02:28:30;12.52;;;8.35;;
14191;SDS011;7177;48.572;7.838;2023-02-21T02:34:22;9.95;;;7.78;;
14191;SDS011;7177;48.572;7.838;2023-02-21T02:39:35;14.65;;;8.38;;
14191;SDS011;7177;48.572;7.838;2023-02-21T02:45:08;11.80;;;8.45;;
14191;SDS011;7177;48.572;7.838;2023-02-21T02:47:38;11.70;;;8.27;;
14191;SDS011;7177;48.572;7.838;2023-02-21T02:50:08;12.27;;;8.63;;
14191;SDS011;7177;48.572;7.838;2023-02-21T02:52:36;10.02;;;7.93;;
14191;SDS011;7177;48.572;7.838;2023-02-21T02:55:04;12.00;;;8.23;;
14191;SDS011;7177;48.572;7.838;2023-02-21T02:57:48;9.00;;;7.15;;
14191;SDS011;7177;48.572;7.838;2023-02-21T03:00:16;10.95;;;7.20;;
14191;SDS011;7177;48.572;7.838;2023-02-21T03:05:56;11.48;;;8.00;;
14191;SDS011;7177;48.572;7.838;2023-02-21T03:11:04;10.13;;;7.32;;
14191;SDS011;7177;48.572;7.838;2023-02-21T03:13:36;9.65;;;7.13;;
14191;SDS011;7177;48.572;7.838;2023-02-21T03:18:49;11.20;;;8.25;;
14191;SDS011;7177;48.572;7.838;2023-02-21T03:21:20;10.80;;;8.75;;
14191;SDS011;7177;48.572;7.838;2023-02-21T03:23:50;11.68;;;8.35;;
14191;SDS011;7177;48.572;7.838;2023-02-21T03:26:19;10.32;;;7.55;;
14191;SDS011;7177;48.572;7.838;2023-02-21T03:28:44;13.68;;;9.20;;
14191;SDS011;7177;48.572;7.838;2023-02-21T03:31:12;16.52;;;10.20;;
14191;SDS011;7177;48.572;7.838;2023-02-21T03:33:40;14.40;;;9.52;;
14191;SDS011;7177;48.572;7.838;2023-02-21T03:36:05;13.97;;;9.40;;
14191;SDS011;7177;48.572;7.838;2023-02-21T03:38:33;12.63;;;9.00;;
14191;SDS011;7177;48.572;7.838;2023-02-21T03:40:59;15.63;;;10.25;;
14191;SDS011;7177;48.572;7.838;2023-02-21T03:43:25;14.00;;;8.93;;
14191;SDS011;7177;48.572;7.838;2023-02-21T03:45:50;12.10;;;8.27;;
14191;SDS011;7177;48.572;7.838;2023-02-21T03:48:16;13.77;;;8.40;;
14191;SDS011;7177;48.572;7.838;2023-02-21T03:50:42;11.00;;;8.13;;
14191;SDS011;7177;48.572;7.838;2023-02-21T03:53:08;11.60;;;7.37;;
14191;SDS011;7177;48.572;7.838;2023-02-21T03:55:34;10.30;;;7.53;;
14191;SDS011;7177;48.572;7.838;2023-02-21T03:57:59;9.60;;;6.93;;
14191;SDS011;7177;48.572;7.838;2023-02-21T04:00:25;9.43;;;7.07;;
14191;SDS011;7177;48.572;7.838;2023-02-21T04:02:50;10.30;;;7.53;;
14191;SDS011;7177;48.572;7.838;2023-02-21T04:05:16;8.87;;;6.47;;
14191;SDS011;7177;48.572;7.838;2023-02-21T04:07:41;9.57;;;6.80;;
14191;SDS011;7177;48.572;7.838;2023-02-21T04:10:07;9.87;;;6.47;;
14191;SDS011;7177;48.572;7.838;2023-02-21T04:12:32;10.30;;;6.77;;
14191;SDS011;7177;48.572;7.838;2023-02-21T04:14:58;8.87;;;6.40;;
14191;SDS011;7177;48.572;7.838;2023-02-21T04:17:24;7.90;;;5.73;;
14191;SDS011;7177;48.572;7.838;2023-02-21T04:19:50;7.53;;;5.73;;
14191;SDS011;7177;48.572;7.838;2023-02-21T04:22:15;8.02;;;5.82;;
14191;SDS011;7177;48.572;7.838;2023-02-21T04:24:41;7.00;;;5.53;;
14191;SDS011;7177;48.572;7.838;2023-02-21T04:27:06;8.03;;;5.20;;
14191;SDS011;7177;48.572;7.838;2023-02-21T04:29:32;7.80;;;5.50;;
14191;SDS011;7177;48.572;7.838;2023-02-21T04:31:58;8.17;;;4.87;;
14191;SDS011;7177;48.572;7.838;2023-02-21T04:34:24;8.07;;;6.07;;
14191;SDS011;7177;48.572;7.838;2023-02-21T04:36:49;8.53;;;5.93;;
14191;SDS011;7177;48.572;7.838;2023-02-21T04:39:15;10.17;;;6.17;;
14191;SDS011;7177;48.572;7.838;2023-02-21T04:41:40;8.73;;;6.17;;
14191;SDS011;7177;48.572;7.838;2023-02-21T04:44:06;8.80;;;6.17;;
14191;SDS011;7177;48.572;7.838;2023-02-21T04:46:32;11.43;;;6.40;;
14191;SDS011;7177;48.572;7.838;2023-02-21T04:48:58;8.32;;;5.70;;
14191;SDS011;7177;48.572;7.838;2023-02-21T04:51:24;9.30;;;5.83;;
14191;SDS011;7177;48.572;7.838;2023-02-21T04:53:50;7.88;;;5.63;;
14191;SDS011;7177;48.572;7.838;2023-02-21T04:56:17;9.10;;;6.15;;
14191;SDS011;7177;48.572;7.838;2023-02-21T04:58:45;9.38;;;5.53;;
14191;SDS011;7177;48.572;7.838;2023-02-21T05:01:11;8.87;;;5.67;;
14191;SDS011;7177;48.572;7.838;2023-02-21T05:03:37;8.73;;;5.82;;
14191;SDS011;7177;48.572;7.838;2023-02-21T05:06:02;7.10;;;4.77;;
14191;SDS011;7177;48.572;7.838;2023-02-21T05:08:28;7.93;;;5.10;;
14191;SDS011;7177;48.572;7.838;2023-02-21T05:10:54;9.67;;;5.70;;
14191;SDS011;7177;48.572;7.838;2023-02-21T05:13:19;7.97;;;5.70;;
14191;SDS011;7177;48.572;7.838;2023-02-21T05:15:46;7.43;;;5.43;;
14191;SDS011;7177;48.572;7.838;2023-02-21T05:18:12;8.13;;;5.70;;
14191;SDS011;7177;48.572;7.838;2023-02-21T05:20:37;8.10;;;5.87;;
14191;SDS011;7177;48.572;7.838;2023-02-21T05:23:03;8.33;;;5.90;;
14191;SDS011;7177;48.572;7.838;2023-02-21T05:25:28;9.50;;;5.93;;
14191;SDS011;7177;48.572;7.838;2023-02-21T05:27:54;8.10;;;6.47;;
14191;SDS011;7177;48.572;7.838;2023-02-21T05:30:20;8.23;;;5.93;;
14191;SDS011;7177;48.572;7.838;2023-02-21T05:32:48;8.15;;;6.13;;
14191;SDS011;7177;48.572;7.838;2023-02-21T05:35:14;8.77;;;6.47;;
14191;SDS011;7177;48.572;7.838;2023-02-21T05:37:41;8.52;;;6.28;;
14191;SDS011;7177;48.572;7.838;2023-02-21T05:40:09;7.80;;;6.10;;
14191;SDS011;7177;48.572;7.838;2023-02-21T05:42:36;9.27;;;6.57;;
14191;SDS011;7177;48.572;7.838;2023-02-21T05:45:02;11.77;;;7.33;;
14191;SDS011;7177;48.572;7.838;2023-02-21T05:47:30;10.70;;;7.30;;
14191;SDS011;7177;48.572;7.838;2023-02-21T05:49:58;9.10;;;6.05;;
14191;SDS011;7177;48.572;7.838;2023-02-21T05:52:24;10.37;;;6.77;;
14191;SDS011;7177;48.572;7.838;2023-02-21T05:54:49;8.63;;;6.27;;
14191;SDS011;7177;48.572;7.838;2023-02-21T05:57:15;7.20;;;5.87;;
14191;SDS011;7177;48.572;7.838;2023-02-21T05:59:40;11.50;;;5.90;;
14191;SDS011;7177;48.572;7.838;2023-02-21T06:02:07;7.32;;;5.75;;
14191;SDS011;7177;48.572;7.838;2023-02-21T06:04:32;9.13;;;6.30;;
14191;SDS011;7177;48.572;7.838;2023-02-21T06:06:58;7.80;;;6.13;;
14191;SDS011;7177;48.572;7.838;2023-02-21T06:09:23;8.17;;;5.70;;
14191;SDS011;7177;48.572;7.838;2023-02-21T06:11:49;8.53;;;6.10;;
14191;SDS011;7177;48.572;7.838;2023-02-21T06:14:16;10.90;;;7.57;;
14191;SDS011;7177;48.572;7.838;2023-02-21T06:16:43;10.13;;;7.18;;
14191;SDS011;7177;48.572;7.838;2023-02-21T06:19:10;8.52;;;6.63;;
14191;SDS011;7177;48.572;7.838;2023-02-21T06:21:37;9.35;;;6.47;;
14191;SDS011;7177;48.572;7.838;2023-02-21T06:24:04;9.40;;;7.05;;
14191;SDS011;7177;48.572;7.838;2023-02-21T06:26:30;11.17;;;6.40;;
14191;SDS011;7177;48.572;7.838;2023-02-21T06:28:56;9.40;;;6.03;;
14191;SDS011;7177;48.572;7.838;2023-02-21T06:31:21;9.07;;;6.03;;
14191;SDS011;7177;48.572;7.838;2023-02-21T06:33:47;9.70;;;6.03;;
14191;SDS011;7177;48.572;7.838;2023-02-21T06:36:15;10.18;;;6.20;;
14191;SDS011;7177;48.572;7.838;2023-02-21T06:38:45;8.50;;;6.05;;
14191;SDS011;7177;48.572;7.838;2023-02-21T06:41:14;8.65;;;5.60;;
14191;SDS011;7177;48.572;7.838;2023-02-21T06:43:41;8.70;;;5.30;;
14191;SDS011;7177;48.572;7.838;2023-02-21T06:46:07;8.00;;;5.30;;
14191;SDS011;7177;48.572;7.838;2023-02-21T06:48:32;7.73;;;5.70;;
14191;SDS011;7177;48.572;7.838;2023-02-21T06:50:58;8.77;;;5.67;;
14191;SDS011;7177;48.572;7.838;2023-02-21T06:53:23;9.73;;;5.83;;
14191;SDS011;7177;48.572;7.838;2023-02-21T06:55:49;11.80;;;6.37;;
14191;SDS011;7177;48.572;7.838;2023-02-21T06:58:15;8.57;;;6.37;;
14191;SDS011;7177;48.572;7.838;2023-02-21T07:00:40;8.50;;;5.50;;
14191;SDS011;7177;48.572;7.838;2023-02-21T07:03:06;10.33;;;5.83;;
14191;SDS011;7177;48.572;7.838;2023-02-21T07:05:31;10.27;;;6.57;;
14191;SDS011;7177;48.572;7.838;2023-02-21T07:07:59;11.10;;;6.57;;
14191;SDS011;7177;48.572;7.838;2023-02-21T07:10:25;10.75;;;6.13;;
14191;SDS011;7177;48.572;7.838;2023-02-21T07:12:51;9.20;;;6.30;;
14191;SDS011;7177;48.572;7.838;2023-02-21T07:15:16;10.13;;;5.90;;
14191;SDS011;7177;48.572;7.838;2023-02-21T07:17:42;7.53;;;5.77;;
14191;SDS011;7177;48.572;7.838;2023-02-21T07:20:08;9.47;;;6.23;;
14191;SDS011;7177;48.572;7.838;2023-02-21T07:22:33;8.15;;;5.95;;
14191;SDS011;7177;48.572;7.838;2023-02-21T07:24:59;9.70;;;6.37;;
14191;SDS011;7177;48.572;7.838;2023-02-21T07:27:25;7.30;;;5.67;;
14191;SDS011;7177;48.572;7.838;2023-02-21T07:29:50;9.73;;;5.90;;
14191;SDS011;7177;48.572;7.838;2023-02-21T07:32:16;9.00;;;6.17;;
14191;SDS011;7177;48.572;7.838;2023-02-21T07:34:41;16.77;;;10.40;;
14191;SDS011;7177;48.572;7.838;2023-02-21T07:37:07;21.65;;;12.40;;
14191;SDS011;7177;48.572;7.838;2023-02-21T07:39:33;20.95;;;13.38;;
14191;SDS011;7177;48.572;7.838;2023-02-21T07:41:59;35.17;;;16.70;;
14191;SDS011;7177;48.572;7.838;2023-02-21T07:44:24;17.70;;;12.10;;
14191;SDS011;7177;48.572;7.838;2023-02-21T07:46:50;12.43;;;8.83;;
14191;SDS011;7177;48.572;7.838;2023-02-21T07:49:15;11.67;;;7.40;;
14191;SDS011;7177;48.572;7.838;2023-02-21T07:51:41;8.77;;;6.87;;
14191;SDS011;7177;48.572;7.838;2023-02-21T07:54:07;9.47;;;6.90;;
14191;SDS011;7177;48.572;7.838;2023-02-21T07:56:32;10.87;;;7.20;;
14191;SDS011;7177;48.572;7.838;2023-02-21T07:58:58;11.67;;;7.63;;
14191;SDS011;7177;48.572;7.838;2023-02-21T08:01:24;12.23;;;7.37;;
14191;SDS011;7177;48.572;7.838;2023-02-21T08:03:50;10.90;;;7.83;;
14191;SDS011;7177;48.572;7.838;2023-02-21T08:06:16;14.63;;;9.00;;
14191;SDS011;7177;48.572;7.838;2023-02-21T08:08:43;11.97;;;8.10;;
14191;SDS011;7177;48.572;7.838;2023-02-21T08:11:09;10.83;;;6.77;;
14191;SDS011;7177;48.572;7.838;2023-02-21T08:13:34;8.00;;;5.90;;
14191;SDS011;7177;48.572;7.838;2023-02-21T08:16:00;11.40;;;6.77;;
14191;SDS011;7177;48.572;7.838;2023-02-21T08:18:26;10.83;;;6.67;;
14191;SDS011;7177;48.572;7.838;2023-02-21T08:20:52;10.77;;;6.47;;
14191;SDS011;7177;48.572;7.838;2023-02-21T08:23:18;10.73;;;6.97;;
14191;SDS011;7177;48.572;7.838;2023-02-21T08:25:44;9.63;;;6.40;;
14191;SDS011;7177;48.572;7.838;2023-02-21T08:28:11;8.87;;;6.47;;
14191;SDS011;7177;48.572;7.838;2023-02-21T08:30:37;12.50;;;7.17;;
14191;SDS011;7177;48.572;7.838;2023-02-21T08:33:03;11.70;;;6.97;;
14191;SDS011;7177;48.572;7.838;2023-02-21T08:35:28;10.53;;;7.23;;
14191;SDS011;7177;48.572;7.838;2023-02-21T08:37:54;7.83;;;6.60;;
14191;SDS011;7177;48.572;7.838;2023-02-21T08:40:27;10.50;;;6.87;;
14191;SDS011;7177;48.572;7.838;2023-02-21T08:42:54;12.80;;;6.90;;
14191;SDS011;7177;48.572;7.838;2023-02-21T08:45:21;17.67;;;7.53;;
14191;SDS011;7177;48.572;7.838;2023-02-21T08:47:48;15.20;;;6.60;;
14191;SDS011;7177;48.572;7.838;2023-02-21T08:50:14;10.63;;;7.13;;
14191;SDS011;7177;48.572;7.838;2023-02-21T08:52:39;10.20;;;6.93;;
14191;SDS011;7177;48.572;7.838;2023-02-21T08:55:06;10.97;;;7.03;;
14191;SDS011;7177;48.572;7.838;2023-02-21T08:57:32;12.57;;;8.00;;
14191;SDS011;7177;48.572;7.838;2023-02-21T08:59:58;11.20;;;7.20;;
14191;SDS011;7177;48.572;7.838;2023-02-21T09:02:24;14.63;;;8.13;;
14191;SDS011;7177;48.572;7.838;2023-02-21T09:04:50;12.93;;;7.70;;
14191;SDS011;7177;48.572;7.838;2023-02-21T09:07:17;12.57;;;7.77;;
14191;SDS011;7177;48.572;7.838;2023-02-21T09:09:44;13.20;;;8.33;;
14191;SDS011;7177;48.572;7.838;2023-02-21T09:12:10;12.33;;;8.47;;
14191;SDS011;7177;48.572;7.838;2023-02-21T09:14:36;12.80;;;7.20;;
14191;SDS011;7177;48.572;7.838;2023-02-21T09:17:04;13.40;;;8.10;;
14191;SDS011;7177;48.572;7.838;2023-02-21T09:19:31;10.23;;;7.57;;
14191;SDS011;7177;48.572;7.838;2023-02-21T09:21:57;13.97;;;8.40;;
14191;SDS011;7177;48.572;7.838;2023-02-21T09:24:23;10.83;;;7.37;;
14191;SDS011;7177;48.572;7.838;2023-02-21T09:26:50;12.33;;;8.30;;
14191;SDS011;7177;48.572;7.838;2023-02-21T09:29:20;12.43;;;8.10;;
14191;SDS011;7177;48.572;7.838;2023-02-21T09:31:46;10.73;;;7.70;;
14191;SDS011;7177;48.572;7.838;2023-02-21T09:34:12;10.60;;;7.57;;
14191;SDS011;7177;48.572;7.838;2023-02-21T09:36:38;10.60;;;7.67;;
14191;SDS011;7177;48.572;7.838;2023-02-21T09:39:04;10.47;;;7.57;;
14191;SDS011;7177;48.572;7.838;2023-02-21T09:41:30;10.93;;;7.43;;
14191;SDS011;7177;48.572;7.838;2023-02-21T09:43:57;11.40;;;7.17;;
14191;SDS011;7177;48.572;7.838;2023-02-21T09:51:44;9.33;;;6.77;;
14191;SDS011;7177;48.572;7.838;2023-02-21T09:54:16;12.03;;;7.07;;
14191;SDS011;7177;48.572;7.838;2023-02-21T09:56:55;8.83;;;6.13;;
14191;SDS011;7177;48.572;7.838;2023-02-21T09:59:24;8.83;;;6.10;;
14191;SDS011;7177;48.572;7.838;2023-02-21T10:07:01;9.93;;;6.73;;
14191;SDS011;7177;48.572;7.838;2023-02-21T10:09:41;8.70;;;6.60;;
14191;SDS011;7177;48.572;7.838;2023-02-21T10:12:27;13.00;;;6.47;;
14191;SDS011;7177;48.572;7.838;2023-02-21T10:17:55;10.53;;;6.47;;
14191;SDS011;7177;48.572;7.838;2023-02-21T10:23:23;12.00;;;6.47;;
14191;SDS011;7177;48.572;7.838;2023-02-21T10:26:03;13.50;;;6.77;;
14191;SDS011;7177;48.572;7.838;2023-02-21T10:28:33;9.50;;;6.30;;
14191;SDS011;7177;48.572;7.838;2023-02-21T10:31:00;11.43;;;6.37;;
14191;SDS011;7177;48.572;7.838;2023-02-21T10:33:31;8.47;;;5.93;;
14191;SDS011;7177;48.572;7.838;2023-02-21T10:36:01;8.23;;;6.20;;
14191;SDS011;7177;48.572;7.838;2023-02-21T10:38:26;9.17;;;5.87;;
14191;SDS011;7177;48.572;7.838;2023-02-21T10:40:54;7.90;;;6.17;;
14191;SDS011;7177;48.572;7.838;2023-02-21T10:43:25;15.27;;;6.17;;
14191;SDS011;7177;48.572;7.838;2023-02-21T10:46:07;11.20;;;5.87;;
14191;SDS011;7177;48.572;7.838;2023-02-21T10:48:43;9.90;;;5.77;;
14191;SDS011;7177;48.572;7.838;2023-02-21T10:51:31;8.10;;;5.83;;
14191;SDS011;7177;48.572;7.838;2023-02-21T10:54:15;9.03;;;6.23;;
14191;SDS011;7177;48.572;7.838;2023-02-21T10:56:41;14.40;;;6.00;;
14191;SDS011;7177;48.572;7.838;2023-02-21T10:59:07;8.97;;;5.60;;
14191;SDS011;7177;48.572;7.838;2023-02-21T11:04:22;8.43;;;5.20;;
14191;SDS011;7177;48.572;7.838;2023-02-21T11:06:53;8.70;;;6.20;;
14191;SDS011;7177;48.572;7.838;2023-02-21T11:09:23;9.97;;;5.77;;
14191;SDS011;7177;48.572;7.838;2023-02-21T11:12:00;7.87;;;5.27;;
14191;SDS011;7177;48.572;7.838;2023-02-21T11:19:48;7.37;;;5.10;;
14191;SDS011;7177;48.572;7.838;2023-02-21T11:22:17;9.83;;;5.37;;
14191;SDS011;7177;48.572;7.838;2023-02-21T11:24:46;6.60;;;5.30;;
14191;SDS011;7177;48.572;7.838;2023-02-21T11:27:16;11.47;;;5.10;;
14191;SDS011;7177;48.572;7.838;2023-02-21T11:29:42;7.63;;;5.03;;
14191;SDS011;7177;48.572;7.838;2023-02-21T11:32:11;7.57;;;5.40;;
14191;SDS011;7177;48.572;7.838;2023-02-21T11:34:45;8.97;;;5.20;;
14191;SDS011;7177;48.572;7.838;2023-02-21T11:37:12;7.80;;;5.20;;
14191;SDS011;7177;48.572;7.838;2023-02-21T11:39:38;7.40;;;5.10;;
14191;SDS011;7177;48.572;7.838;2023-02-21T11:42:22;8.77;;;5.50;;
14191;SDS011;7177;48.572;7.838;2023-02-21T11:45:04;10.63;;;5.67;;
14191;SDS011;7177;48.572;7.838;2023-02-21T11:47:44;7.73;;;4.93;;
14191;SDS011;7177;48.572;7.838;2023-02-21T11:55:23;7.13;;;5.10;;
14191;SDS011;7177;48.572;7.838;2023-02-21T12:00:56;7.37;;;4.90;;
14191;SDS011;7177;48.572;7.838;2023-02-21T12:09:27;8.03;;;5.40;;
14191;SDS011;7177;48.572;7.838;2023-02-21T12:17:39;8.70;;;5.40;;
14191;SDS011;7177;48.572;7.838;2023-02-21T12:20:24;6.87;;;5.07;;
14191;SDS011;7177;48.572;7.838;2023-02-21T12:31:00;7.37;;;4.47;;
14191;SDS011;7177;48.572;7.838;2023-02-21T12:36:24;6.20;;;4.30;;
14191;SDS011;7177;48.572;7.838;2023-02-21T12:47:48;10.17;;;4.63;;
14191;SDS011;7177;48.572;7.838;2023-02-21T12:50:17;6.60;;;4.13;;
14191;SDS011;7177;48.572;7.838;2023-02-21T12:52:56;8.20;;;4.00;;
14191;SDS011;7177;48.572;7.838;2023-02-21T12:55:36;7.10;;;4.00;;
14191;SDS011;7177;48.572;7.838;2023-02-21T12:58:16;6.93;;;4.27;;
14191;SDS011;7177;48.572;7.838;2023-02-21T13:06:37;5.33;;;3.80;;
14191;SDS011;7177;48.572;7.838;2023-02-21T13:09:14;7.90;;;4.00;;
14191;SDS011;7177;48.572;7.838;2023-02-21T13:11:59;6.40;;;4.07;;
14191;SDS011;7177;48.572;7.838;2023-02-21T13:14:40;6.07;;;3.60;;
14191;SDS011;7177;48.572;7.838;2023-02-21T13:17:12;4.83;;;3.60;;
14191;SDS011;7177;48.572;7.838;2023-02-21T13:20:00;7.17;;;3.67;;
14191;SDS011;7177;48.572;7.838;2023-02-21T13:22:29;5.27;;;3.53;;
14191;SDS011;7177;48.572;7.838;2023-02-21T13:25:09;6.17;;;2.70;;
14191;SDS011;7177;48.572;7.838;2023-02-21T13:27:44;5.60;;;2.97;;
14191;SDS011;7177;48.572;7.838;2023-02-21T13:32:52;7.23;;;3.57;;
14191;SDS011;7177;48.572;7.838;2023-02-21T13:35:28;5.27;;;3.47;;
14191;SDS011;7177;48.572;7.838;2023-02-21T13:38:03;7.93;;;3.40;;
14191;SDS011;7177;48.572;7.838;2023-02-21T13:40:51;5.90;;;3.23;;
14191;SDS011;7177;48.572;7.838;2023-02-21T13:43:50;5.87;;;3.37;;
14191;SDS011;7177;48.572;7.838;2023-02-21T13:57:34;4.63;;;3.20;;
14191;SDS011;7177;48.572;7.838;2023-02-21T14:03:27;5.63;;;3.53;;
14191;SDS011;7177;48.572;7.838;2023-02-21T14:08:21;4.43;;;2.83;;
14191;SDS011;7177;48.572;7.838;2023-02-21T14:13:32;7.73;;;3.17;;
14191;SDS011;7177;48.572;7.838;2023-02-21T14:16:16;6.70;;;3.07;;
14191;SDS011;7177;48.572;7.838;2023-02-21T14:26:39;4.60;;;2.87;;
14191;SDS011;7177;48.572;7.838;2023-02-21T14:37:14;4.43;;;2.80;;
14191;SDS011;7177;48.572;7.838;2023-02-21T14:39:44;6.00;;;2.60;;
14191;SDS011;7177;48.572;7.838;2023-02-21T14:42:21;4.27;;;2.80;;
14191;SDS011;7177;48.572;7.838;2023-02-21T14:47:50;6.50;;;3.00;;
14191;SDS011;7177;48.572;7.838;2023-02-21T14:53:12;5.87;;;3.23;;
14191;SDS011;7177;48.572;7.838;2023-02-21T14:58:33;3.37;;;2.57;;
14191;SDS011;7177;48.572;7.838;2023-02-21T15:01:46;4.17;;;2.80;;
14191;SDS011;7177;48.572;7.838;2023-02-21T15:07:07;6.63;;;2.83;;
14191;SDS011;7177;48.572;7.838;2023-02-21T15:09:35;6.77;;;2.93;;
14191;SDS011;7177;48.572;7.838;2023-02-21T15:12:01;5.07;;;3.03;;
14191;SDS011;7177;48.572;7.838;2023-02-21T15:14:32;9.50;;;3.80;;
14191;SDS011;7177;48.572;7.838;2023-02-21T15:17:11;6.10;;;3.27;;
14191;SDS011;7177;48.572;7.838;2023-02-21T15:19:41;8.43;;;2.67;;
14191;SDS011;7177;48.572;7.838;2023-02-21T15:24:38;3.17;;;2.77;;
14191;SDS011;7177;48.572;7.838;2023-02-21T15:27:07;13.80;;;9.07;;
14191;SDS011;7177;48.572;7.838;2023-02-21T15:29:34;6.80;;;3.43;;
14191;SDS011;7177;48.572;7.838;2023-02-21T15:32:00;5.50;;;3.10;;
14191;SDS011;7177;48.572;7.838;2023-02-21T15:36:58;5.47;;;3.07;;
14191;SDS011;7177;48.572;7.838;2023-02-21T15:39:36;5.77;;;2.93;;
14191;SDS011;7177;48.572;7.838;2023-02-21T15:42:06;3.90;;;2.60;;
14191;SDS011;7177;48.572;7.838;2023-02-21T15:47:11;6.10;;;3.13;;
14191;SDS011;7177;48.572;7.838;2023-02-21T15:49:43;7.50;;;2.90;;
14191;SDS011;7177;48.572;7.838;2023-02-21T15:58:00;6.03;;;3.30;;
14191;SDS011;7177;48.572;7.838;2023-02-21T16:08:52;6.37;;;4.00;;
14191;SDS011;7177;48.572;7.838;2023-02-21T16:11:23;4.77;;;3.03;;
14191;SDS011;7177;48.572;7.838;2023-02-21T16:14:20;3.97;;;2.90;;
14191;SDS011;7177;48.572;7.838;2023-02-21T16:17:04;4.23;;;2.90;;
14191;SDS011;7177;48.572;7.838;2023-02-21T16:19:41;4.07;;;2.83;;
14191;SDS011;7177;48.572;7.838;2023-02-21T16:22:23;4.93;;;3.10;;
14191;SDS011;7177;48.572;7.838;2023-02-21T16:24:48;4.20;;;2.87;;
14191;SDS011;7177;48.572;7.838;2023-02-21T16:27:15;4.30;;;2.90;;
14191;SDS011;7177;48.572;7.838;2023-02-21T16:29:42;4.87;;;3.50;;
14191;SDS011;7177;48.572;7.838;2023-02-21T16:32:17;6.57;;;4.53;;
14191;SDS011;7177;48.572;7.838;2023-02-21T16:34:44;7.50;;;4.43;;
14191;SDS011;7177;48.572;7.838;2023-02-21T16:37:11;5.80;;;4.40;;
14191;SDS011;7177;48.572;7.838;2023-02-21T16:39:38;7.13;;;4.33;;
14191;SDS011;7177;48.572;7.838;2023-02-21T16:42:05;13.00;;;6.30;;
14191;SDS011;7177;48.572;7.838;2023-02-21T16:44:30;8.70;;;5.10;;
14191;SDS011;7177;48.572;7.838;2023-02-21T16:46:56;6.07;;;3.83;;
14191;SDS011;7177;48.572;7.838;2023-02-21T16:49:22;6.00;;;3.70;;
14191;SDS011;7177;48.572;7.838;2023-02-21T16:51:47;4.57;;;3.13;;
14191;SDS011;7177;48.572;7.838;2023-02-21T16:54:13;4.67;;;3.50;;
14191;SDS011;7177;48.572;7.838;2023-02-21T16:56:40;6.63;;;3.93;;
14191;SDS011;7177;48.572;7.838;2023-02-21T16:59:09;8.30;;;3.87;;
14191;SDS011;7177;48.572;7.838;2023-02-21T17:01:37;7.50;;;5.10;;
14191;SDS011;7177;48.572;7.838;2023-02-21T17:04:04;7.63;;;5.10;;
14191;SDS011;7177;48.572;7.838;2023-02-21T17:06:40;6.93;;;4.50;;
14191;SDS011;7177;48.572;7.838;2023-02-21T17:09:07;6.23;;;4.40;;
14191;SDS011;7177;48.572;7.838;2023-02-21T17:11:40;7.57;;;4.37;;
14191;SDS011;7177;48.572;7.838;2023-02-21T17:14:06;7.17;;;4.40;;
14191;SDS011;7177;48.572;7.838;2023-02-21T17:16:31;11.43;;;5.53;;
14191;SDS011;7177;48.572;7.838;2023-02-21T17:18:57;6.93;;;4.43;;
14191;SDS011;7177;48.572;7.838;2023-02-21T17:21:22;7.80;;;4.60;;
14191;SDS011;7177;48.572;7.838;2023-02-21T17:23:48;8.17;;;4.73;;
14191;SDS011;7177;48.572;7.838;2023-02-21T17:26:15;10.67;;;4.40;;
14191;SDS011;7177;48.572;7.838;2023-02-21T17:28:41;6.97;;;4.60;;
14191;SDS011;7177;48.572;7.838;2023-02-21T17:31:07;6.87;;;4.23;;
14191;SDS011;7177;48.572;7.838;2023-02-21T17:33:32;6.73;;;4.50;;
14191;SDS011;7177;48.572;7.838;2023-02-21T17:35:59;5.53;;;4.00;;
14191;SDS011;7177;48.572;7.838;2023-02-21T17:38:25;6.53;;;4.93;;
14191;SDS011;7177;48.572;7.838;2023-02-21T17:40:50;10.40;;;5.23;;
14191;SDS011;7177;48.572;7.838;2023-02-21T17:43:17;8.47;;;4.70;;
14191;SDS011;7177;48.572;7.838;2023-02-21T17:45:43;7.80;;;4.80;;
14191;SDS011;7177;48.572;7.838;2023-02-21T17:48:10;8.80;;;5.63;;
14191;SDS011;7177;48.572;7.838;2023-02-21T17:50:35;8.70;;;5.27;;
14191;SDS011;7177;48.572;7.838;2023-02-21T17:53:01;6.97;;;5.00;;
14191;SDS011;7177;48.572;7.838;2023-02-21T17:55:26;13.90;;;5.53;;
14191;SDS011;7177;48.572;7.838;2023-02-21T17:57:54;7.67;;;5.03;;
14191;SDS011;7177;48.572;7.838;2023-02-21T18:00:24;11.37;;;5.30;;
14191;SDS011;7177;48.572;7.838;2023-02-21T18:02:51;8.30;;;5.20;;
14191;SDS011;7177;48.572;7.838;2023-02-21T18:05:18;7.37;;;5.07;;
14191;SDS011;7177;48.572;7.838;2023-02-21T18:07:45;10.47;;;5.40;;
14191;SDS011;7177;48.572;7.838;2023-02-21T18:10:15;7.43;;;4.60;;